sensor_id;sensor_type;location;lat;lon;timestamp;P1;durP1;ratioP1;P2;durP2;ratioP2
15114;SDS011;7658;51.456;7.622;2024-03-25T00:00:46;28.07;;;11.43;;
15114;SDS011;7658;51.456;7.622;2024-03-25T00:03:12;29.43;;;12.47;;
15114;SDS011;7658;51.456;7.622;2024-03-25T00:05:38;24.93;;;11.47;;
15114;SDS011;7658;51.456;7.622;2024-03-25T00:08:04;26.17;;;11.33;;
15114;SDS011;7658;51.456;7.622;2024-03-25T00:10:30;26.40;;;11.50;;
15114;SDS011;7658;51.456;7.622;2024-03-25T00:12:56;27.53;;;11.37;;
15114;SDS011;7658;51.456;7.622;2024-03-25T00:15:21;24.93;;;11.37;;
15114;SDS011;7658;51.456;7.622;2024-03-25T00:17:48;31.90;;;12.07;;
15114;SDS011;7658;51.456;7.622;2024-03-25T00:20:15;27.43;;;12.10;;
15114;SDS011;7658;51.456;7.622;2024-03-25T00:22:41;30.33;;;12.47;;
15114;SDS011;7658;51.456;7.622;2024-03-25T00:25:07;27.83;;;12.03;;
15114;SDS011;7658;51.456;7.622;2024-03-25T00:27:33;30.53;;;12.70;;
15114;SDS011;7658;51.456;7.622;2024-03-25T00:29:59;25.30;;;11.03;;
15114;SDS011;7658;51.456;7.622;2024-03-25T00:32:25;26.77;;;11.90;;
15114;SDS011;7658;51.456;7.622;2024-03-25T00:34:51;35.93;;;11.03;;
15114;SDS011;7658;51.456;7.622;2024-03-25T00:37:17;19.97;;;11.33;;
15114;SDS011;7658;51.456;7.622;2024-03-25T00:39:42;20.53;;;10.87;;
15114;SDS011;7658;51.456;7.622;2024-03-25T00:42:08;20.57;;;10.73;;
15114;SDS011;7658;51.456;7.622;2024-03-25T00:44:34;20.70;;;10.13;;
15114;SDS011;7658;51.456;7.622;2024-03-25T00:47:01;18.23;;;10.27;;
15114;SDS011;7658;51.456;7.622;2024-03-25T00:49:27;34.97;;;10.93;;
15114;SDS011;7658;51.456;7.622;2024-03-25T00:51:53;18.23;;;11.27;;
15114;SDS011;7658;51.456;7.622;2024-03-25T00:54:19;22.33;;;11.93;;
15114;SDS011;7658;51.456;7.622;2024-03-25T00:56:45;23.87;;;11.90;;
15114;SDS011;7658;51.456;7.622;2024-03-25T00:59:11;30.97;;;13.20;;
15114;SDS011;7658;51.456;7.622;2024-03-25T01:01:37;24.63;;;13.10;;
15114;SDS011;7658;51.456;7.622;2024-03-25T01:04:03;27.37;;;13.07;;
15114;SDS011;7658;51.456;7.622;2024-03-25T01:06:29;29.40;;;14.10;;
15114;SDS011;7658;51.456;7.622;2024-03-25T01:08:55;26.80;;;14.73;;
15114;SDS011;7658;51.456;7.622;2024-03-25T01:11:21;24.63;;;13.80;;
15114;SDS011;7658;51.456;7.622;2024-03-25T01:13:47;35.37;;;13.77;;
15114;SDS011;7658;51.456;7.622;2024-03-25T01:16:13;26.27;;;13.47;;
15114;SDS011;7658;51.456;7.622;2024-03-25T01:18:39;32.83;;;14.00;;
15114;SDS011;7658;51.456;7.622;2024-03-25T01:21:05;26.10;;;12.93;;
15114;SDS011;7658;51.456;7.622;2024-03-25T01:23:31;32.90;;;14.37;;
15114;SDS011;7658;51.456;7.622;2024-03-25T01:25:57;33.80;;;14.27;;
15114;SDS011;7658;51.456;7.622;2024-03-25T01:28:22;32.53;;;13.53;;
15114;SDS011;7658;51.456;7.622;2024-03-25T01:30:48;30.17;;;13.37;;
15114;SDS011;7658;51.456;7.622;2024-03-25T01:33:14;35.47;;;14.70;;
15114;SDS011;7658;51.456;7.622;2024-03-25T01:35:40;27.23;;;13.17;;
15114;SDS011;7658;51.456;7.622;2024-03-25T01:38:06;37.90;;;13.90;;
15114;SDS011;7658;51.456;7.622;2024-03-25T01:40:32;40.97;;;15.20;;
15114;SDS011;7658;51.456;7.622;2024-03-25T01:43:02;33.43;;;13.37;;
15114;SDS011;7658;51.456;7.622;2024-03-25T01:45:29;38.03;;;14.97;;
15114;SDS011;7658;51.456;7.622;2024-03-25T01:47:57;40.33;;;15.40;;
15114;SDS011;7658;51.456;7.622;2024-03-25T01:50:26;34.03;;;14.83;;
15114;SDS011;7658;51.456;7.622;2024-03-25T01:52:52;37.80;;;15.20;;
15114;SDS011;7658;51.456;7.622;2024-03-25T01:55:27;40.00;;;15.67;;
15114;SDS011;7658;51.456;7.622;2024-03-25T01:57:55;38.73;;;16.27;;
15114;SDS011;7658;51.456;7.622;2024-03-25T02:00:21;44.43;;;15.97;;
15114;SDS011;7658;51.456;7.622;2024-03-25T02:02:49;35.57;;;16.40;;
15114;SDS011;7658;51.456;7.622;2024-03-25T02:05:17;41.10;;;17.93;;
15114;SDS011;7658;51.456;7.622;2024-03-25T02:07:44;42.80;;;16.87;;
15114;SDS011;7658;51.456;7.622;2024-03-25T02:10:10;41.33;;;17.03;;
15114;SDS011;7658;51.456;7.622;2024-03-25T02:12:40;44.83;;;16.87;;
15114;SDS011;7658;51.456;7.622;2024-03-25T02:15:11;41.37;;;18.90;;
15114;SDS011;7658;51.456;7.622;2024-03-25T02:17:41;45.50;;;19.93;;
15114;SDS011;7658;51.456;7.622;2024-03-25T02:20:07;49.57;;;19.53;;
15114;SDS011;7658;51.456;7.622;2024-03-25T02:22:34;39.87;;;18.57;;
15114;SDS011;7658;51.456;7.622;2024-03-25T02:25:01;43.57;;;20.27;;
15114;SDS011;7658;51.456;7.622;2024-03-25T02:27:35;37.43;;;17.87;;
15114;SDS011;7658;51.456;7.622;2024-03-25T02:30:03;29.17;;;15.73;;
15114;SDS011;7658;51.456;7.622;2024-03-25T02:32:31;38.87;;;15.27;;
15114;SDS011;7658;51.456;7.622;2024-03-25T02:34:57;34.27;;;15.43;;
15114;SDS011;7658;51.456;7.622;2024-03-25T02:37:23;36.60;;;14.87;;
15114;SDS011;7658;51.456;7.622;2024-03-25T02:39:50;27.67;;;14.17;;
15114;SDS011;7658;51.456;7.622;2024-03-25T02:42:18;35.60;;;15.30;;
15114;SDS011;7658;51.456;7.622;2024-03-25T02:44:44;30.47;;;14.63;;
15114;SDS011;7658;51.456;7.622;2024-03-25T02:47:10;39.43;;;15.97;;
15114;SDS011;7658;51.456;7.622;2024-03-25T02:49:36;30.77;;;15.33;;
15114;SDS011;7658;51.456;7.622;2024-03-25T02:52:02;39.20;;;14.90;;
15114;SDS011;7658;51.456;7.622;2024-03-25T02:54:28;40.50;;;15.13;;
15114;SDS011;7658;51.456;7.622;2024-03-25T02:57:06;41.83;;;15.40;;
15114;SDS011;7658;51.456;7.622;2024-03-25T02:59:32;40.10;;;15.53;;
15114;SDS011;7658;51.456;7.622;2024-03-25T03:01:58;42.10;;;16.73;;
15114;SDS011;7658;51.456;7.622;2024-03-25T03:04:24;39.70;;;15.43;;
15114;SDS011;7658;51.456;7.622;2024-03-25T03:06:49;44.57;;;15.83;;
15114;SDS011;7658;51.456;7.622;2024-03-25T03:09:15;30.77;;;14.70;;
15114;SDS011;7658;51.456;7.622;2024-03-25T03:11:41;33.43;;;16.33;;
15114;SDS011;7658;51.456;7.622;2024-03-25T03:14:07;45.43;;;15.63;;
15114;SDS011;7658;51.456;7.622;2024-03-25T03:16:34;42.13;;;15.87;;
15114;SDS011;7658;51.456;7.622;2024-03-25T03:18:59;37.63;;;16.30;;
15114;SDS011;7658;51.456;7.622;2024-03-25T03:21:25;33.83;;;15.63;;
15114;SDS011;7658;51.456;7.622;2024-03-25T03:23:51;38.73;;;15.50;;
15114;SDS011;7658;51.456;7.622;2024-03-25T03:26:17;37.67;;;16.17;;
15114;SDS011;7658;51.456;7.622;2024-03-25T03:28:43;29.07;;;14.30;;
15114;SDS011;7658;51.456;7.622;2024-03-25T03:31:08;26.83;;;15.20;;
15114;SDS011;7658;51.456;7.622;2024-03-25T03:33:34;34.90;;;15.27;;
15114;SDS011;7658;51.456;7.622;2024-03-25T03:36:01;36.30;;;16.70;;
15114;SDS011;7658;51.456;7.622;2024-03-25T03:38:26;36.47;;;14.83;;
15114;SDS011;7658;51.456;7.622;2024-03-25T03:40:58;40.00;;;16.37;;
15114;SDS011;7658;51.456;7.622;2024-03-25T03:43:25;38.23;;;15.03;;
15114;SDS011;7658;51.456;7.622;2024-03-25T03:45:50;41.87;;;15.87;;
15114;SDS011;7658;51.456;7.622;2024-03-25T03:48:16;37.07;;;16.03;;
15114;SDS011;7658;51.456;7.622;2024-03-25T03:50:43;36.40;;;15.60;;
15114;SDS011;7658;51.456;7.622;2024-03-25T03:53:09;43.27;;;15.97;;
15114;SDS011;7658;51.456;7.622;2024-03-25T03:55:35;32.17;;;16.33;;
15114;SDS011;7658;51.456;7.622;2024-03-25T03:58:01;42.77;;;17.60;;
15114;SDS011;7658;51.456;7.622;2024-03-25T04:00:27;37.33;;;16.90;;
15114;SDS011;7658;51.456;7.622;2024-03-25T04:02:53;42.13;;;18.27;;
15114;SDS011;7658;51.456;7.622;2024-03-25T04:05:19;41.57;;;17.07;;
15114;SDS011;7658;51.456;7.622;2024-03-25T04:07:45;46.97;;;18.90;;
15114;SDS011;7658;51.456;7.622;2024-03-25T04:10:12;40.97;;;18.60;;
15114;SDS011;7658;51.456;7.622;2024-03-25T04:12:39;38.97;;;18.20;;
15114;SDS011;7658;51.456;7.622;2024-03-25T04:15:05;39.87;;;18.90;;
15114;SDS011;7658;51.456;7.622;2024-03-25T04:17:31;42.13;;;18.00;;
15114;SDS011;7658;51.456;7.622;2024-03-25T04:19:59;48.00;;;19.27;;
15114;SDS011;7658;51.456;7.622;2024-03-25T04:22:26;36.33;;;17.53;;
15114;SDS011;7658;51.456;7.622;2024-03-25T04:24:51;36.43;;;18.60;;
15114;SDS011;7658;51.456;7.622;2024-03-25T04:27:17;33.50;;;17.10;;
15114;SDS011;7658;51.456;7.622;2024-03-25T04:29:45;45.43;;;17.33;;
15114;SDS011;7658;51.456;7.622;2024-03-25T04:32:11;41.60;;;18.00;;
15114;SDS011;7658;51.456;7.622;2024-03-25T04:34:37;40.10;;;18.37;;
15114;SDS011;7658;51.456;7.622;2024-03-25T04:37:03;37.77;;;17.43;;
15114;SDS011;7658;51.456;7.622;2024-03-25T04:39:29;48.10;;;18.87;;
15114;SDS011;7658;51.456;7.622;2024-03-25T04:41:55;32.67;;;16.90;;
15114;SDS011;7658;51.456;7.622;2024-03-25T04:44:21;39.17;;;18.30;;
15114;SDS011;7658;51.456;7.622;2024-03-25T04:46:47;40.70;;;18.37;;
15114;SDS011;7658;51.456;7.622;2024-03-25T04:49:13;34.00;;;16.33;;
15114;SDS011;7658;51.456;7.622;2024-03-25T04:51:39;41.03;;;18.20;;
15114;SDS011;7658;51.456;7.622;2024-03-25T04:54:04;38.73;;;17.03;;
15114;SDS011;7658;51.456;7.622;2024-03-25T04:56:30;48.33;;;17.90;;
15114;SDS011;7658;51.456;7.622;2024-03-25T04:58:56;46.83;;;17.40;;
15114;SDS011;7658;51.456;7.622;2024-03-25T05:01:26;40.27;;;16.70;;
15114;SDS011;7658;51.456;7.622;2024-03-25T05:03:53;38.83;;;16.77;;
15114;SDS011;7658;51.456;7.622;2024-03-25T05:06:19;47.87;;;17.13;;
15114;SDS011;7658;51.456;7.622;2024-03-25T05:08:44;46.27;;;17.33;;
15114;SDS011;7658;51.456;7.622;2024-03-25T05:11:10;41.17;;;17.63;;
15114;SDS011;7658;51.456;7.622;2024-03-25T05:13:36;38.80;;;17.47;;
15114;SDS011;7658;51.456;7.622;2024-03-25T05:16:02;31.87;;;16.27;;
15114;SDS011;7658;51.456;7.622;2024-03-25T05:18:28;39.80;;;17.87;;
15114;SDS011;7658;51.456;7.622;2024-03-25T05:20:54;36.27;;;15.03;;
15114;SDS011;7658;51.456;7.622;2024-03-25T05:23:20;36.60;;;16.77;;
15114;SDS011;7658;51.456;7.622;2024-03-25T05:25:46;38.00;;;15.67;;
15114;SDS011;7658;51.456;7.622;2024-03-25T05:28:11;37.80;;;16.23;;
15114;SDS011;7658;51.456;7.622;2024-03-25T05:30:38;35.13;;;16.87;;
15114;SDS011;7658;51.456;7.622;2024-03-25T05:33:04;36.00;;;15.93;;
15114;SDS011;7658;51.456;7.622;2024-03-25T05:35:30;36.20;;;15.40;;
15114;SDS011;7658;51.456;7.622;2024-03-25T05:37:58;37.00;;;16.63;;
15114;SDS011;7658;51.456;7.622;2024-03-25T05:40:24;45.33;;;16.93;;
15114;SDS011;7658;51.456;7.622;2024-03-25T05:42:50;38.13;;;15.20;;
15114;SDS011;7658;51.456;7.622;2024-03-25T05:45:16;39.07;;;15.37;;
15114;SDS011;7658;51.456;7.622;2024-03-25T05:47:42;29.90;;;16.70;;
15114;SDS011;7658;51.456;7.622;2024-03-25T05:50:07;34.90;;;17.63;;
15114;SDS011;7658;51.456;7.622;2024-03-25T05:52:33;53.83;;;19.07;;
15114;SDS011;7658;51.456;7.622;2024-03-25T05:55:00;39.77;;;18.83;;
15114;SDS011;7658;51.456;7.622;2024-03-25T05:57:26;35.83;;;18.90;;
15114;SDS011;7658;51.456;7.622;2024-03-25T05:59:52;37.70;;;19.20;;
15114;SDS011;7658;51.456;7.622;2024-03-25T06:02:18;44.50;;;18.37;;
15114;SDS011;7658;51.456;7.622;2024-03-25T06:04:43;34.83;;;16.47;;
15114;SDS011;7658;51.456;7.622;2024-03-25T06:07:09;40.70;;;18.30;;
15114;SDS011;7658;51.456;7.622;2024-03-25T06:09:35;36.27;;;15.87;;
15114;SDS011;7658;51.456;7.622;2024-03-25T06:12:01;35.13;;;17.83;;
15114;SDS011;7658;51.456;7.622;2024-03-25T06:14:26;33.97;;;17.10;;
15114;SDS011;7658;51.456;7.622;2024-03-25T06:16:52;38.10;;;16.80;;
15114;SDS011;7658;51.456;7.622;2024-03-25T06:19:18;35.93;;;16.97;;
15114;SDS011;7658;51.456;7.622;2024-03-25T06:21:44;40.70;;;16.47;;
15114;SDS011;7658;51.456;7.622;2024-03-25T06:24:10;29.07;;;17.10;;
15114;SDS011;7658;51.456;7.622;2024-03-25T06:26:36;37.57;;;17.03;;
15114;SDS011;7658;51.456;7.622;2024-03-25T06:29:02;40.23;;;16.87;;
15114;SDS011;7658;51.456;7.622;2024-03-25T06:31:28;35.33;;;17.40;;
15114;SDS011;7658;51.456;7.622;2024-03-25T06:34:12;39.93;;;17.70;;
15114;SDS011;7658;51.456;7.622;2024-03-25T06:36:46;44.77;;;18.40;;
15114;SDS011;7658;51.456;7.622;2024-03-25T06:39:14;47.13;;;18.83;;
15114;SDS011;7658;51.456;7.622;2024-03-25T06:41:40;46.27;;;18.27;;
15114;SDS011;7658;51.456;7.622;2024-03-25T06:44:06;34.90;;;17.67;;
15114;SDS011;7658;51.456;7.622;2024-03-25T06:46:32;36.33;;;17.67;;
15114;SDS011;7658;51.456;7.622;2024-03-25T06:48:58;32.93;;;17.40;;
15114;SDS011;7658;51.456;7.622;2024-03-25T06:51:24;39.57;;;16.80;;
15114;SDS011;7658;51.456;7.622;2024-03-25T06:53:50;39.93;;;17.30;;
15114;SDS011;7658;51.456;7.622;2024-03-25T06:56:16;38.40;;;18.43;;
15114;SDS011;7658;51.456;7.622;2024-03-25T06:58:42;31.27;;;17.63;;
15114;SDS011;7658;51.456;7.622;2024-03-25T07:01:10;39.17;;;17.50;;
15114;SDS011;7658;51.456;7.622;2024-03-25T07:03:39;35.97;;;17.50;;
15114;SDS011;7658;51.456;7.622;2024-03-25T07:06:06;49.83;;;17.97;;
15114;SDS011;7658;51.456;7.622;2024-03-25T07:08:31;35.93;;;17.57;;
15114;SDS011;7658;51.456;7.622;2024-03-25T07:10:58;40.77;;;17.20;;
15114;SDS011;7658;51.456;7.622;2024-03-25T07:13:24;41.67;;;16.63;;
15114;SDS011;7658;51.456;7.622;2024-03-25T07:15:50;33.23;;;15.67;;
15114;SDS011;7658;51.456;7.622;2024-03-25T07:18:15;30.50;;;15.67;;
15114;SDS011;7658;51.456;7.622;2024-03-25T07:20:42;31.00;;;15.53;;
15114;SDS011;7658;51.456;7.622;2024-03-25T07:23:09;35.83;;;15.53;;
15114;SDS011;7658;51.456;7.622;2024-03-25T07:25:35;30.70;;;14.27;;
15114;SDS011;7658;51.456;7.622;2024-03-25T07:28:01;26.53;;;14.70;;
15114;SDS011;7658;51.456;7.622;2024-03-25T07:30:28;29.83;;;14.87;;
15114;SDS011;7658;51.456;7.622;2024-03-25T07:32:54;36.70;;;14.00;;
15114;SDS011;7658;51.456;7.622;2024-03-25T07:35:23;33.20;;;15.77;;
15114;SDS011;7658;51.456;7.622;2024-03-25T07:37:49;26.93;;;14.40;;
15114;SDS011;7658;51.456;7.622;2024-03-25T07:40:17;31.90;;;13.17;;
15114;SDS011;7658;51.456;7.622;2024-03-25T07:42:43;25.27;;;13.00;;
15114;SDS011;7658;51.456;7.622;2024-03-25T07:45:09;33.80;;;13.27;;
15114;SDS011;7658;51.456;7.622;2024-03-25T07:47:35;29.13;;;12.50;;
15114;SDS011;7658;51.456;7.622;2024-03-25T07:50:01;23.53;;;11.20;;
15114;SDS011;7658;51.456;7.622;2024-03-25T07:52:27;16.20;;;10.27;;
15114;SDS011;7658;51.456;7.622;2024-03-25T07:54:53;32.50;;;11.13;;
15114;SDS011;7658;51.456;7.622;2024-03-25T07:57:20;27.77;;;9.83;;
15114;SDS011;7658;51.456;7.622;2024-03-25T07:59:46;21.87;;;10.27;;
15114;SDS011;7658;51.456;7.622;2024-03-25T08:02:11;18.63;;;9.87;;
15114;SDS011;7658;51.456;7.622;2024-03-25T08:04:38;23.97;;;10.43;;
15114;SDS011;7658;51.456;7.622;2024-03-25T08:07:04;16.07;;;9.73;;
15114;SDS011;7658;51.456;7.622;2024-03-25T08:09:30;20.23;;;8.23;;
15114;SDS011;7658;51.456;7.622;2024-03-25T08:11:56;23.43;;;8.27;;
15114;SDS011;7658;51.456;7.622;2024-03-25T08:14:22;19.83;;;7.50;;
15114;SDS011;7658;51.456;7.622;2024-03-25T08:16:48;23.83;;;8.17;;
15114;SDS011;7658;51.456;7.622;2024-03-25T08:19:14;21.40;;;7.47;;
15114;SDS011;7658;51.456;7.622;2024-03-25T08:21:40;17.67;;;7.00;;
15114;SDS011;7658;51.456;7.622;2024-03-25T08:24:06;19.33;;;6.83;;
15114;SDS011;7658;51.456;7.622;2024-03-25T08:26:31;21.50;;;7.43;;
15114;SDS011;7658;51.456;7.622;2024-03-25T08:28:58;12.53;;;7.03;;
15114;SDS011;7658;51.456;7.622;2024-03-25T08:31:23;15.10;;;6.80;;
15114;SDS011;7658;51.456;7.622;2024-03-25T08:33:49;10.03;;;6.60;;
15114;SDS011;7658;51.456;7.622;2024-03-25T08:36:15;16.80;;;7.20;;
15114;SDS011;7658;51.456;7.622;2024-03-25T08:38:41;20.73;;;6.73;;
15114;SDS011;7658;51.456;7.622;2024-03-25T08:41:07;15.77;;;6.80;;
15114;SDS011;7658;51.456;7.622;2024-03-25T08:43:33;14.07;;;6.45;;
15114;SDS011;7658;51.456;7.622;2024-03-25T08:45:59;14.07;;;6.22;;
15114;SDS011;7658;51.456;7.622;2024-03-25T08:48:25;18.23;;;6.38;;
15114;SDS011;7658;51.456;7.622;2024-03-25T08:50:50;14.73;;;5.80;;
15114;SDS011;7658;51.456;7.622;2024-03-25T08:53:16;13.20;;;5.47;;
15114;SDS011;7658;51.456;7.622;2024-03-25T08:55:45;13.07;;;5.77;;
15114;SDS011;7658;51.456;7.622;2024-03-25T08:58:15;11.10;;;5.60;;
15114;SDS011;7658;51.456;7.622;2024-03-25T09:00:41;13.07;;;5.83;;
15114;SDS011;7658;51.456;7.622;2024-03-25T09:03:07;10.73;;;5.23;;
15114;SDS011;7658;51.456;7.622;2024-03-25T09:05:33;10.67;;;5.30;;
15114;SDS011;7658;51.456;7.622;2024-03-25T09:08:00;14.87;;;5.90;;
15114;SDS011;7658;51.456;7.622;2024-03-25T09:10:26;10.93;;;5.63;;
15114;SDS011;7658;51.456;7.622;2024-03-25T09:13:10;15.40;;;6.37;;
15114;SDS011;7658;51.456;7.622;2024-03-25T09:15:36;12.00;;;5.83;;
15114;SDS011;7658;51.456;7.622;2024-03-25T09:18:02;15.60;;;5.93;;
15114;SDS011;7658;51.456;7.622;2024-03-25T09:20:28;9.63;;;5.00;;
15114;SDS011;7658;51.456;7.622;2024-03-25T09:22:54;15.07;;;5.47;;
15114;SDS011;7658;51.456;7.622;2024-03-25T09:25:20;14.60;;;5.35;;
15114;SDS011;7658;51.456;7.622;2024-03-25T09:27:46;17.25;;;5.90;;
15114;SDS011;7658;51.456;7.622;2024-03-25T09:30:12;10.80;;;4.68;;
15114;SDS011;7658;51.456;7.622;2024-03-25T09:32:39;7.80;;;5.30;;
15114;SDS011;7658;51.456;7.622;2024-03-25T09:35:06;11.98;;;4.88;;
15114;SDS011;7658;51.456;7.622;2024-03-25T09:37:32;9.40;;;5.18;;
15114;SDS011;7658;51.456;7.622;2024-03-25T09:39:58;6.88;;;4.50;;
15114;SDS011;7658;51.456;7.622;2024-03-25T09:42:25;12.60;;;5.35;;
15114;SDS011;7658;51.456;7.622;2024-03-25T09:44:56;16.20;;;5.80;;
15114;SDS011;7658;51.456;7.622;2024-03-25T09:47:22;12.63;;;5.57;;
15114;SDS011;7658;51.456;7.622;2024-03-25T09:49:48;9.27;;;5.35;;
15114;SDS011;7658;51.456;7.622;2024-03-25T09:52:17;11.35;;;5.60;;
15114;SDS011;7658;51.456;7.622;2024-03-25T09:54:43;15.02;;;5.55;;
15114;SDS011;7658;51.456;7.622;2024-03-25T09:57:09;12.13;;;5.90;;
15114;SDS011;7658;51.456;7.622;2024-03-25T09:59:35;17.67;;;6.10;;
15114;SDS011;7658;51.456;7.622;2024-03-25T10:02:02;13.63;;;5.70;;
15114;SDS011;7658;51.456;7.622;2024-03-25T10:04:29;12.70;;;5.45;;
15114;SDS011;7658;51.456;7.622;2024-03-25T10:06:55;19.00;;;6.30;;
15114;SDS011;7658;51.456;7.622;2024-03-25T10:09:21;11.32;;;5.53;;
15114;SDS011;7658;51.456;7.622;2024-03-25T10:11:48;15.37;;;6.30;;
15114;SDS011;7658;51.456;7.622;2024-03-25T10:14:14;11.97;;;5.23;;
15114;SDS011;7658;51.456;7.622;2024-03-25T10:16:48;13.00;;;5.47;;
15114;SDS011;7658;51.456;7.622;2024-03-25T10:19:14;14.60;;;5.30;;
15114;SDS011;7658;51.456;7.622;2024-03-25T10:21:40;12.77;;;5.53;;
15114;SDS011;7658;51.456;7.622;2024-03-25T10:24:06;16.58;;;5.35;;
15114;SDS011;7658;51.456;7.622;2024-03-25T10:26:32;10.30;;;5.30;;
15114;SDS011;7658;51.456;7.622;2024-03-25T10:31:26;15.00;;;5.83;;
15114;SDS011;7658;51.456;7.622;2024-03-25T10:33:52;11.20;;;5.57;;
15114;SDS011;7658;51.456;7.622;2024-03-25T10:36:19;13.18;;;5.45;;
15114;SDS011;7658;51.456;7.622;2024-03-25T10:38:46;15.35;;;5.45;;
15114;SDS011;7658;51.456;7.622;2024-03-25T10:41:16;15.27;;;5.45;;
15114;SDS011;7658;51.456;7.622;2024-03-25T10:43:44;12.52;;;5.38;;
15114;SDS011;7658;51.456;7.622;2024-03-25T10:46:13;11.65;;;4.82;;
15114;SDS011;7658;51.456;7.622;2024-03-25T10:48:43;14.02;;;5.43;;
15114;SDS011;7658;51.456;7.622;2024-03-25T10:51:26;8.70;;;5.05;;
15114;SDS011;7658;51.456;7.622;2024-03-25T10:53:54;10.80;;;4.38;;
15114;SDS011;7658;51.456;7.622;2024-03-25T10:56:21;6.88;;;4.28;;
15114;SDS011;7658;51.456;7.622;2024-03-25T10:58:50;7.13;;;4.60;;
15114;SDS011;7658;51.456;7.622;2024-03-25T11:01:17;9.38;;;4.40;;
15114;SDS011;7658;51.456;7.622;2024-03-25T11:03:46;8.57;;;5.07;;
15114;SDS011;7658;51.456;7.622;2024-03-25T11:06:13;10.73;;;4.18;;
15114;SDS011;7658;51.456;7.622;2024-03-25T11:08:40;8.27;;;4.30;;
15114;SDS011;7658;51.456;7.622;2024-03-25T11:11:06;9.10;;;4.18;;
15114;SDS011;7658;51.456;7.622;2024-03-25T11:13:32;10.27;;;4.88;;
15114;SDS011;7658;51.456;7.622;2024-03-25T11:15:59;12.40;;;4.60;;
15114;SDS011;7658;51.456;7.622;2024-03-25T11:18:26;11.40;;;4.50;;
15114;SDS011;7658;51.456;7.622;2024-03-25T11:21:03;7.65;;;4.30;;
15114;SDS011;7658;51.456;7.622;2024-03-25T11:23:46;10.63;;;4.63;;
15114;SDS011;7658;51.456;7.622;2024-03-25T11:26:21;8.65;;;4.55;;
15114;SDS011;7658;51.456;7.622;2024-03-25T11:28:49;11.50;;;4.63;;
15114;SDS011;7658;51.456;7.622;2024-03-25T11:31:16;8.57;;;3.85;;
15114;SDS011;7658;51.456;7.622;2024-03-25T11:33:44;12.50;;;4.57;;
15114;SDS011;7658;51.456;7.622;2024-03-25T11:36:10;10.85;;;4.90;;
15114;SDS011;7658;51.456;7.622;2024-03-25T11:38:36;7.65;;;5.03;;
15114;SDS011;7658;51.456;7.622;2024-03-25T11:41:05;16.25;;;5.03;;
15114;SDS011;7658;51.456;7.622;2024-03-25T11:43:32;7.70;;;3.95;;
15114;SDS011;7658;51.456;7.622;2024-03-25T11:45:58;8.75;;;4.32;;
15114;SDS011;7658;51.456;7.622;2024-03-25T11:48:24;7.30;;;4.40;;
15114;SDS011;7658;51.456;7.622;2024-03-25T11:50:49;7.10;;;4.03;;
15114;SDS011;7658;51.456;7.622;2024-03-25T11:53:15;9.48;;;4.20;;
15114;SDS011;7658;51.456;7.622;2024-03-25T11:55:45;11.25;;;4.10;;
15114;SDS011;7658;51.456;7.622;2024-03-25T11:58:12;9.13;;;3.92;;
15114;SDS011;7658;51.456;7.622;2024-03-25T12:00:47;10.20;;;4.13;;
15114;SDS011;7658;51.456;7.622;2024-03-25T12:03:22;7.60;;;4.00;;
15114;SDS011;7658;51.456;7.622;2024-03-25T12:05:48;9.80;;;3.92;;
15114;SDS011;7658;51.456;7.622;2024-03-25T12:08:13;7.35;;;4.30;;
15114;SDS011;7658;51.456;7.622;2024-03-25T12:10:39;7.25;;;4.00;;
15114;SDS011;7658;51.456;7.622;2024-03-25T12:13:25;7.90;;;4.00;;
15114;SDS011;7658;51.456;7.622;2024-03-25T12:15:52;8.95;;;3.67;;
15114;SDS011;7658;51.456;7.622;2024-03-25T12:18:18;14.30;;;4.43;;
15114;SDS011;7658;51.456;7.622;2024-03-25T12:20:45;9.18;;;3.67;;
15114;SDS011;7658;51.456;7.622;2024-03-25T12:23:11;9.68;;;4.32;;
15114;SDS011;7658;51.456;7.622;2024-03-25T12:25:36;6.47;;;3.53;;
15114;SDS011;7658;51.456;7.622;2024-03-25T12:28:08;8.75;;;4.00;;
15114;SDS011;7658;51.456;7.622;2024-03-25T12:30:40;9.10;;;4.22;;
15114;SDS011;7658;51.456;7.622;2024-03-25T12:33:14;10.38;;;4.45;;
15114;SDS011;7658;51.456;7.622;2024-03-25T12:35:41;7.53;;;3.65;;
15114;SDS011;7658;51.456;7.622;2024-03-25T12:38:07;6.88;;;3.95;;
15114;SDS011;7658;51.456;7.622;2024-03-25T12:40:33;8.07;;;4.05;;
15114;SDS011;7658;51.456;7.622;2024-03-25T12:42:58;7.25;;;3.67;;
15114;SDS011;7658;51.456;7.622;2024-03-25T12:45:24;7.63;;;3.33;;
15114;SDS011;7658;51.456;7.622;2024-03-25T12:47:50;7.30;;;3.70;;
15114;SDS011;7658;51.456;7.622;2024-03-25T12:50:17;7.63;;;3.45;;
15114;SDS011;7658;51.456;7.622;2024-03-25T12:52:43;9.07;;;3.60;;
15114;SDS011;7658;51.456;7.622;2024-03-25T12:55:09;5.82;;;3.15;;
15114;SDS011;7658;51.456;7.622;2024-03-25T12:57:35;9.63;;;3.45;;
15114;SDS011;7658;51.456;7.622;2024-03-25T13:00:01;6.10;;;3.55;;
15114;SDS011;7658;51.456;7.622;2024-03-25T13:02:29;10.00;;;4.05;;
15114;SDS011;7658;51.456;7.622;2024-03-25T13:04:56;7.53;;;3.30;;
15114;SDS011;7658;51.456;7.622;2024-03-25T13:07:22;7.53;;;3.40;;
15114;SDS011;7658;51.456;7.622;2024-03-25T13:09:47;6.82;;;3.60;;
15114;SDS011;7658;51.456;7.622;2024-03-25T13:12:13;8.05;;;3.75;;
15114;SDS011;7658;51.456;7.622;2024-03-25T13:14:39;7.25;;;3.50;;
15114;SDS011;7658;51.456;7.622;2024-03-25T13:17:05;9.82;;;3.53;;
15114;SDS011;7658;51.456;7.622;2024-03-25T13:19:30;6.05;;;3.15;;
15114;SDS011;7658;51.456;7.622;2024-03-25T13:21:56;7.07;;;3.55;;
15114;SDS011;7658;51.456;7.622;2024-03-25T13:24:22;5.07;;;3.00;;
15114;SDS011;7658;51.456;7.622;2024-03-25T13:26:48;6.53;;;3.10;;
15114;SDS011;7658;51.456;7.622;2024-03-25T13:29:14;5.55;;;3.05;;
15114;SDS011;7658;51.456;7.622;2024-03-25T13:31:39;8.32;;;3.13;;
15114;SDS011;7658;51.456;7.622;2024-03-25T13:34:05;5.47;;;3.17;;
15114;SDS011;7658;51.456;7.622;2024-03-25T13:36:31;3.72;;;2.80;;
15114;SDS011;7658;51.456;7.622;2024-03-25T13:38:57;7.18;;;3.13;;
15114;SDS011;7658;51.456;7.622;2024-03-25T13:41:23;4.43;;;2.88;;
15114;SDS011;7658;51.456;7.622;2024-03-25T13:43:49;8.48;;;3.00;;
15114;SDS011;7658;51.456;7.622;2024-03-25T13:46:15;8.02;;;3.10;;
15114;SDS011;7658;51.456;7.622;2024-03-25T13:48:42;6.30;;;2.95;;
15114;SDS011;7658;51.456;7.622;2024-03-25T13:51:08;7.88;;;3.58;;
15114;SDS011;7658;51.456;7.622;2024-03-25T13:53:34;4.72;;;3.10;;
15114;SDS011;7658;51.456;7.622;2024-03-25T13:56:00;7.32;;;3.30;;
15114;SDS011;7658;51.456;7.622;2024-03-25T13:58:26;4.22;;;3.13;;
15114;SDS011;7658;51.456;7.622;2024-03-25T14:00:52;9.10;;;3.10;;
15114;SDS011;7658;51.456;7.622;2024-03-25T14:03:17;7.43;;;3.22;;
15114;SDS011;7658;51.456;7.622;2024-03-25T14:05:45;7.32;;;3.20;;
15114;SDS011;7658;51.456;7.622;2024-03-25T14:08:11;5.80;;;3.22;;
15114;SDS011;7658;51.456;7.622;2024-03-25T14:10:37;3.83;;;3.03;;
15114;SDS011;7658;51.456;7.622;2024-03-25T14:13:03;5.70;;;3.17;;
15114;SDS011;7658;51.456;7.622;2024-03-25T14:15:30;9.68;;;3.65;;
15114;SDS011;7658;51.456;7.622;2024-03-25T14:17:56;6.20;;;3.28;;
15114;SDS011;7658;51.456;7.622;2024-03-25T14:20:22;6.82;;;3.72;;
15114;SDS011;7658;51.456;7.622;2024-03-25T14:22:48;6.07;;;3.33;;
15114;SDS011;7658;51.456;7.622;2024-03-25T14:25:14;6.22;;;3.10;;
15114;SDS011;7658;51.456;7.622;2024-03-25T14:27:40;8.10;;;3.25;;
15114;SDS011;7658;51.456;7.622;2024-03-25T14:30:06;6.13;;;3.58;;
15114;SDS011;7658;51.456;7.622;2024-03-25T14:32:35;5.15;;;3.15;;
15114;SDS011;7658;51.456;7.622;2024-03-25T14:35:00;5.75;;;3.20;;
15114;SDS011;7658;51.456;7.622;2024-03-25T14:37:27;5.72;;;3.35;;
15114;SDS011;7658;51.456;7.622;2024-03-25T14:39:52;5.13;;;3.22;;
15114;SDS011;7658;51.456;7.622;2024-03-25T14:42:18;11.13;;;3.88;;